Terminal Aerodrome Forecast
Issued by NWS Chicago, IL

Home | Current Version | Previous Version | Graphics & Text | Print | Product List | Glossary On
Versions: 1 2 3 4 5 6 7 8 9 10 11 12 13 14 15 16 17 18 19 20 21 22 23 24
000
FTUS43 KLOT 180535
TAFRFD
TAF
KRFD 180535Z 1806/1906 07003KT P6SM SKC
     FM181200 08012G18KT P6SM BKN050 OVC120
     FM181500 06014G22KT 4SM -SHRA VCTS OVC025CB
      TEMPO 1815/1818 2SM TSRAPLSN BR
     FM181830 04013G20KT 1 1/2SM -DZRA BR OVC006
     FM182200 01012G18KT 1SM -SN BR OVC007=

USA.gov is the U.S. government's official web portal to all federal, state and local government web resources and services.